sensor_id;sensor_type;location;lat;lon;timestamp;temperature;humidity
14739;DHT22;7461;52.440;13.540;2023-04-08T00:01:53;5.70;99.90
14739;DHT22;7461;52.440;13.540;2023-04-08T00:04:20;5.70;99.90
14739;DHT22;7461;52.440;13.540;2023-04-08T00:06:47;5.60;99.90
14739;DHT22;7461;52.440;13.540;2023-04-08T00:09:15;5.70;99.90
14739;DHT22;7461;52.440;13.540;2023-04-08T00:11:42;5.70;99.90
14739;DHT22;7461;52.440;13.540;2023-04-08T00:14:09;5.60;99.90
14739;DHT22;7461;52.440;13.540;2023-04-08T00:16:36;5.70;99.90
14739;DHT22;7461;52.440;13.540;2023-04-08T00:19:03;5.70;99.90
14739;DHT22;7461;52.440;13.540;2023-04-08T00:21:31;5.60;99.90
14739;DHT22;7461;52.440;13.540;2023-04-08T00:23:58;5.60;99.90
14739;DHT22;7461;52.440;13.540;2023-04-08T00:26:28;5.60;99.90
14739;DHT22;7461;52.440;13.540;2023-04-08T00:28:55;5.60;99.90
14739;DHT22;7461;52.440;13.540;2023-04-08T00:31:22;5.60;99.90
14739;DHT22;7461;52.440;13.540;2023-04-08T00:33:49;5.60;99.90
14739;DHT22;7461;52.440;13.540;2023-04-08T00:36:16;5.60;99.90
14739;DHT22;7461;52.440;13.540;2023-04-08T00:38:43;5.60;99.90
14739;DHT22;7461;52.440;13.540;2023-04-08T00:41:11;5.60;99.90
14739;DHT22;7461;52.440;13.540;2023-04-08T00:43:39;5.60;99.90
14739;DHT22;7461;52.440;13.540;2023-04-08T00:46:06;5.60;99.90
14739;DHT22;7461;52.440;13.540;2023-04-08T00:48:35;5.60;99.90
14739;DHT22;7461;52.440;13.540;2023-04-08T00:51:02;5.70;99.90
14739;DHT22;7461;52.440;13.540;2023-04-08T00:53:30;5.70;99.90
14739;DHT22;7461;52.440;13.540;2023-04-08T00:55:57;5.70;99.90
14739;DHT22;7461;52.440;13.540;2023-04-08T00:58:26;5.70;99.90
14739;DHT22;7461;52.440;13.540;2023-04-08T01:01:00;5.60;99.90
14739;DHT22;7461;52.440;13.540;2023-04-08T01:03:37;5.60;99.90
14739;DHT22;7461;52.440;13.540;2023-04-08T01:06:15;5.60;99.90
14739;DHT22;7461;52.440;13.540;2023-04-08T01:08:45;5.60;99.90
14739;DHT22;7461;52.440;13.540;2023-04-08T01:11:14;5.60;99.90
14739;DHT22;7461;52.440;13.540;2023-04-08T01:13:43;5.60;99.90
14739;DHT22;7461;52.440;13.540;2023-04-08T01:16:14;5.70;99.90
14739;DHT22;7461;52.440;13.540;2023-04-08T01:18:43;5.60;99.90
14739;DHT22;7461;52.440;13.540;2023-04-08T01:21:11;5.70;99.90
14739;DHT22;7461;52.440;13.540;2023-04-08T01:23:50;5.70;99.90
14739;DHT22;7461;52.440;13.540;2023-04-08T01:26:23;5.70;99.90
14739;DHT22;7461;52.440;13.540;2023-04-08T01:28:52;5.70;99.90
14739;DHT22;7461;52.440;13.540;2023-04-08T01:31:21;5.70;99.90
14739;DHT22;7461;52.440;13.540;2023-04-08T01:33:50;5.60;99.90
14739;DHT22;7461;52.440;13.540;2023-04-08T01:36:19;5.60;99.90
14739;DHT22;7461;52.440;13.540;2023-04-08T01:38:47;5.60;99.90
14739;DHT22;7461;52.440;13.540;2023-04-08T01:41:16;5.60;99.90
14739;DHT22;7461;52.440;13.540;2023-04-08T01:43:46;5.60;99.90
14739;DHT22;7461;52.440;13.540;2023-04-08T01:46:15;5.60;99.90
14739;DHT22;7461;52.440;13.540;2023-04-08T01:48:43;5.60;99.90
14739;DHT22;7461;52.440;13.540;2023-04-08T01:51:11;5.70;99.90
14739;DHT22;7461;52.440;13.540;2023-04-08T01:53:38;5.60;99.90
14739;DHT22;7461;52.440;13.540;2023-04-08T01:56:08;5.60;99.90
14739;DHT22;7461;52.440;13.540;2023-04-08T01:58:38;5.70;99.90
14739;DHT22;7461;52.440;13.540;2023-04-08T02:01:10;5.70;99.90
14739;DHT22;7461;52.440;13.540;2023-04-08T02:03:38;5.70;99.90
14739;DHT22;7461;52.440;13.540;2023-04-08T02:06:07;5.70;99.90
14739;DHT22;7461;52.440;13.540;2023-04-08T02:08:34;5.70;99.90
14739;DHT22;7461;52.440;13.540;2023-04-08T02:11:01;5.70;99.90
14739;DHT22;7461;52.440;13.540;2023-04-08T02:13:28;5.70;99.90
14739;DHT22;7461;52.440;13.540;2023-04-08T02:16:01;5.70;99.90
14739;DHT22;7461;52.440;13.540;2023-04-08T02:18:31;5.60;99.90
14739;DHT22;7461;52.440;13.540;2023-04-08T02:21:07;5.60;99.90
14739;DHT22;7461;52.440;13.540;2023-04-08T02:23:38;5.70;99.90
14739;DHT22;7461;52.440;13.540;2023-04-08T02:26:07;5.70;99.90
14739;DHT22;7461;52.440;13.540;2023-04-08T02:28:39;5.70;99.90
14739;DHT22;7461;52.440;13.540;2023-04-08T02:31:10;5.70;99.90
14739;DHT22;7461;52.440;13.540;2023-04-08T02:33:40;5.70;99.90
14739;DHT22;7461;52.440;13.540;2023-04-08T02:36:08;5.70;99.90
14739;DHT22;7461;52.440;13.540;2023-04-08T02:38:37;5.70;99.90
14739;DHT22;7461;52.440;13.540;2023-04-08T02:41:04;5.70;99.90
14739;DHT22;7461;52.440;13.540;2023-04-08T02:43:31;5.70;99.90
14739;DHT22;7461;52.440;13.540;2023-04-08T02:45:59;5.70;99.90
14739;DHT22;7461;52.440;13.540;2023-04-08T02:48:28;5.70;99.90
14739;DHT22;7461;52.440;13.540;2023-04-08T02:50:56;5.70;99.90
14739;DHT22;7461;52.440;13.540;2023-04-08T02:53:23;5.70;99.90
14739;DHT22;7461;52.440;13.540;2023-04-08T02:55:51;5.60;99.90
14739;DHT22;7461;52.440;13.540;2023-04-08T02:58:18;5.60;99.90
14739;DHT22;7461;52.440;13.540;2023-04-08T03:00:45;5.60;99.90
14739;DHT22;7461;52.440;13.540;2023-04-08T03:03:12;5.70;99.90
14739;DHT22;7461;52.440;13.540;2023-04-08T03:05:40;5.70;99.90
14739;DHT22;7461;52.440;13.540;2023-04-08T03:08:08;5.70;99.90
14739;DHT22;7461;52.440;13.540;2023-04-08T03:10:35;5.70;99.90
14739;DHT22;7461;52.440;13.540;2023-04-08T03:13:02;5.70;99.90
14739;DHT22;7461;52.440;13.540;2023-04-08T03:15:29;5.70;99.90
14739;DHT22;7461;52.440;13.540;2023-04-08T03:17:56;5.70;99.90
14739;DHT22;7461;52.440;13.540;2023-04-08T03:20:23;5.70;99.90
14739;DHT22;7461;52.440;13.540;2023-04-08T03:22:50;5.60;99.90
14739;DHT22;7461;52.440;13.540;2023-04-08T03:25:18;5.70;99.90
14739;DHT22;7461;52.440;13.540;2023-04-08T03:27:45;5.60;99.90
14739;DHT22;7461;52.440;13.540;2023-04-08T03:30:12;5.60;99.90
14739;DHT22;7461;52.440;13.540;2023-04-08T03:32:39;5.60;99.90
14739;DHT22;7461;52.440;13.540;2023-04-08T03:35:07;5.60;99.90
14739;DHT22;7461;52.440;13.540;2023-04-08T03:37:34;5.60;99.90
14739;DHT22;7461;52.440;13.540;2023-04-08T03:40:01;5.70;99.90
14739;DHT22;7461;52.440;13.540;2023-04-08T03:42:30;5.70;99.90
14739;DHT22;7461;52.440;13.540;2023-04-08T03:44:58;5.70;99.90
14739;DHT22;7461;52.440;13.540;2023-04-08T03:47:25;5.70;99.90
14739;DHT22;7461;52.440;13.540;2023-04-08T03:49:52;5.70;99.90
14739;DHT22;7461;52.440;13.540;2023-04-08T03:52:20;5.70;99.90
14739;DHT22;7461;52.440;13.540;2023-04-08T03:54:47;5.60;99.90
14739;DHT22;7461;52.440;13.540;2023-04-08T03:57:14;5.70;99.90
14739;DHT22;7461;52.440;13.540;2023-04-08T03:59:43;5.70;99.90
14739;DHT22;7461;52.440;13.540;2023-04-08T04:02:10;5.70;99.90
14739;DHT22;7461;52.440;13.540;2023-04-08T04:04:37;5.70;99.90
14739;DHT22;7461;52.440;13.540;2023-04-08T04:07:04;5.70;99.90
14739;DHT22;7461;52.440;13.540;2023-04-08T04:09:31;5.60;99.90
14739;DHT22;7461;52.440;13.540;2023-04-08T04:11:58;5.70;99.90
14739;DHT22;7461;52.440;13.540;2023-04-08T04:14:25;5.70;99.90
14739;DHT22;7461;52.440;13.540;2023-04-08T04:16:53;5.70;99.90
14739;DHT22;7461;52.440;13.540;2023-04-08T04:19:20;5.70;99.90
14739;DHT22;7461;52.440;13.540;2023-04-08T04:21:47;5.70;99.90
14739;DHT22;7461;52.440;13.540;2023-04-08T04:24:14;5.70;99.90
14739;DHT22;7461;52.440;13.540;2023-04-08T04:26:41;5.70;99.90
14739;DHT22;7461;52.440;13.540;2023-04-08T04:29:08;5.70;99.90
14739;DHT22;7461;52.440;13.540;2023-04-08T04:31:35;5.70;99.90
14739;DHT22;7461;52.440;13.540;2023-04-08T04:34:04;5.70;99.90
14739;DHT22;7461;52.440;13.540;2023-04-08T04:36:31;5.70;99.90
14739;DHT22;7461;52.440;13.540;2023-04-08T04:38:58;5.70;99.90
14739;DHT22;7461;52.440;13.540;2023-04-08T04:41:25;5.70;99.90
14739;DHT22;7461;52.440;13.540;2023-04-08T04:43:52;5.70;99.90
14739;DHT22;7461;52.440;13.540;2023-04-08T04:46:19;5.70;99.90
14739;DHT22;7461;52.440;13.540;2023-04-08T04:48:46;5.70;99.90
14739;DHT22;7461;52.440;13.540;2023-04-08T04:51:15;5.70;99.90
14739;DHT22;7461;52.440;13.540;2023-04-08T04:53:42;5.70;99.90
14739;DHT22;7461;52.440;13.540;2023-04-08T04:56:09;5.80;99.90
14739;DHT22;7461;52.440;13.540;2023-04-08T04:58:36;5.80;99.90
14739;DHT22;7461;52.440;13.540;2023-04-08T05:01:03;5.80;99.90
14739;DHT22;7461;52.440;13.540;2023-04-08T05:03:38;5.80;99.90
14739;DHT22;7461;52.440;13.540;2023-04-08T05:06:06;5.80;99.90
14739;DHT22;7461;52.440;13.540;2023-04-08T05:08:34;5.80;99.90
14739;DHT22;7461;52.440;13.540;2023-04-08T05:11:01;5.80;99.90
14739;DHT22;7461;52.440;13.540;2023-04-08T05:13:28;5.80;99.90
14739;DHT22;7461;52.440;13.540;2023-04-08T05:15:55;5.80;99.90
14739;DHT22;7461;52.440;13.540;2023-04-08T05:18:22;5.80;99.90
14739;DHT22;7461;52.440;13.540;2023-04-08T05:20:49;5.80;99.90
14739;DHT22;7461;52.440;13.540;2023-04-08T05:23:16;5.80;99.90
14739;DHT22;7461;52.440;13.540;2023-04-08T05:25:45;5.80;99.90
14739;DHT22;7461;52.440;13.540;2023-04-08T05:28:12;5.80;99.90
14739;DHT22;7461;52.440;13.540;2023-04-08T05:30:38;5.80;99.90
14739;DHT22;7461;52.440;13.540;2023-04-08T05:33:06;5.80;99.90
14739;DHT22;7461;52.440;13.540;2023-04-08T05:35:34;5.90;99.90
14739;DHT22;7461;52.440;13.540;2023-04-08T05:38:01;5.90;99.90
14739;DHT22;7461;52.440;13.540;2023-04-08T05:40:28;5.90;99.90
14739;DHT22;7461;52.440;13.540;2023-04-08T05:42:56;5.90;99.90
14739;DHT22;7461;52.440;13.540;2023-04-08T05:45:23;5.90;99.90
14739;DHT22;7461;52.440;13.540;2023-04-08T05:47:50;6.00;99.90
14739;DHT22;7461;52.440;13.540;2023-04-08T05:50:17;5.90;99.90
14739;DHT22;7461;52.440;13.540;2023-04-08T05:52:45;6.00;99.90
14739;DHT22;7461;52.440;13.540;2023-04-08T05:55:12;5.90;99.90
14739;DHT22;7461;52.440;13.540;2023-04-08T05:57:40;5.90;99.90
14739;DHT22;7461;52.440;13.540;2023-04-08T06:00:10;6.00;99.90
14739;DHT22;7461;52.440;13.540;2023-04-08T06:02:37;6.00;99.90
14739;DHT22;7461;52.440;13.540;2023-04-08T06:05:04;6.00;99.90
14739;DHT22;7461;52.440;13.540;2023-04-08T06:07:33;6.00;99.90
14739;DHT22;7461;52.440;13.540;2023-04-08T06:10:00;6.00;99.90
14739;DHT22;7461;52.440;13.540;2023-04-08T06:12:27;6.00;99.90
14739;DHT22;7461;52.440;13.540;2023-04-08T06:14:55;6.10;99.90
14739;DHT22;7461;52.440;13.540;2023-04-08T06:17:23;6.10;99.90
14739;DHT22;7461;52.440;13.540;2023-04-08T06:19:51;6.10;99.90
14739;DHT22;7461;52.440;13.540;2023-04-08T06:22:18;6.10;99.90
14739;DHT22;7461;52.440;13.540;2023-04-08T06:24:46;6.10;99.90
14739;DHT22;7461;52.440;13.540;2023-04-08T06:27:13;6.10;99.90
14739;DHT22;7461;52.440;13.540;2023-04-08T06:29:40;6.10;99.90
14739;DHT22;7461;52.440;13.540;2023-04-08T06:32:07;6.10;99.90
14739;DHT22;7461;52.440;13.540;2023-04-08T06:34:35;6.10;99.90
14739;DHT22;7461;52.440;13.540;2023-04-08T06:37:03;6.20;99.90
14739;DHT22;7461;52.440;13.540;2023-04-08T06:39:30;6.20;99.90
14739;DHT22;7461;52.440;13.540;2023-04-08T06:41:57;6.20;99.90
14739;DHT22;7461;52.440;13.540;2023-04-08T06:44:24;6.30;99.90
14739;DHT22;7461;52.440;13.540;2023-04-08T06:46:51;6.30;99.90
14739;DHT22;7461;52.440;13.540;2023-04-08T06:49:18;6.40;99.90
14739;DHT22;7461;52.440;13.540;2023-04-08T06:51:47;6.40;99.90
14739;DHT22;7461;52.440;13.540;2023-04-08T06:54:14;6.50;99.90
14739;DHT22;7461;52.440;13.540;2023-04-08T06:56:41;6.50;99.90
14739;DHT22;7461;52.440;13.540;2023-04-08T06:59:08;6.60;99.90
14739;DHT22;7461;52.440;13.540;2023-04-08T07:01:35;6.60;99.90
14739;DHT22;7461;52.440;13.540;2023-04-08T07:04:02;6.70;99.90
14739;DHT22;7461;52.440;13.540;2023-04-08T07:06:28;6.70;99.90
14739;DHT22;7461;52.440;13.540;2023-04-08T07:08:57;6.70;99.90
14739;DHT22;7461;52.440;13.540;2023-04-08T07:11:24;6.70;99.90
14739;DHT22;7461;52.440;13.540;2023-04-08T07:13:51;6.70;99.90
14739;DHT22;7461;52.440;13.540;2023-04-08T07:16:18;6.80;99.90
14739;DHT22;7461;52.440;13.540;2023-04-08T07:18:45;6.80;99.90
14739;DHT22;7461;52.440;13.540;2023-04-08T07:21:12;6.90;99.90
14739;DHT22;7461;52.440;13.540;2023-04-08T07:23:39;7.00;99.90
14739;DHT22;7461;52.440;13.540;2023-04-08T07:26:07;7.00;99.90
14739;DHT22;7461;52.440;13.540;2023-04-08T07:28:34;7.00;99.90
14739;DHT22;7461;52.440;13.540;2023-04-08T07:31:12;7.10;99.90
14739;DHT22;7461;52.440;13.540;2023-04-08T07:33:39;7.20;99.90
14739;DHT22;7461;52.440;13.540;2023-04-08T07:36:06;7.20;99.90
14739;DHT22;7461;52.440;13.540;2023-04-08T07:38:33;7.20;99.90
14739;DHT22;7461;52.440;13.540;2023-04-08T07:41:00;7.20;99.90
14739;DHT22;7461;52.440;13.540;2023-04-08T07:43:30;7.20;99.90
14739;DHT22;7461;52.440;13.540;2023-04-08T07:46:01;7.20;99.90
14739;DHT22;7461;52.440;13.540;2023-04-08T07:48:29;7.30;99.90
14739;DHT22;7461;52.440;13.540;2023-04-08T07:50:56;7.30;99.90
14739;DHT22;7461;52.440;13.540;2023-04-08T07:53:23;7.40;99.90
14739;DHT22;7461;52.440;13.540;2023-04-08T07:55:51;7.40;99.90
14739;DHT22;7461;52.440;13.540;2023-04-08T07:58:18;7.40;99.90
14739;DHT22;7461;52.440;13.540;2023-04-08T08:00:46;7.50;99.90
14739;DHT22;7461;52.440;13.540;2023-04-08T08:03:13;7.50;99.90
14739;DHT22;7461;52.440;13.540;2023-04-08T08:05:41;7.40;99.90
14739;DHT22;7461;52.440;13.540;2023-04-08T08:08:08;7.30;99.90
14739;DHT22;7461;52.440;13.540;2023-04-08T08:10:36;7.40;99.90
14739;DHT22;7461;52.440;13.540;2023-04-08T08:13:03;7.30;99.90
14739;DHT22;7461;52.440;13.540;2023-04-08T08:15:30;7.30;99.90
14739;DHT22;7461;52.440;13.540;2023-04-08T08:17:59;7.30;99.90
14739;DHT22;7461;52.440;13.540;2023-04-08T08:20:26;7.30;99.90
14739;DHT22;7461;52.440;13.540;2023-04-08T08:22:53;7.30;99.90
14739;DHT22;7461;52.440;13.540;2023-04-08T08:25:20;7.30;99.90
14739;DHT22;7461;52.440;13.540;2023-04-08T08:27:47;7.40;99.90
14739;DHT22;7461;52.440;13.540;2023-04-08T08:30:13;7.40;99.90
14739;DHT22;7461;52.440;13.540;2023-04-08T08:32:40;7.40;99.90
14739;DHT22;7461;52.440;13.540;2023-04-08T08:35:09;7.40;99.90
14739;DHT22;7461;52.440;13.540;2023-04-08T08:37:36;7.50;99.90
14739;DHT22;7461;52.440;13.540;2023-04-08T08:40:03;7.40;99.90
14739;DHT22;7461;52.440;13.540;2023-04-08T08:42:31;7.40;99.90
14739;DHT22;7461;52.440;13.540;2023-04-08T08:45:01;7.40;99.90
14739;DHT22;7461;52.440;13.540;2023-04-08T08:47:28;7.50;99.90
14739;DHT22;7461;52.440;13.540;2023-04-08T08:49:56;7.50;99.90
14739;DHT22;7461;52.440;13.540;2023-04-08T08:52:25;7.50;99.90
14739;DHT22;7461;52.440;13.540;2023-04-08T08:54:57;7.50;99.90
14739;DHT22;7461;52.440;13.540;2023-04-08T08:57:24;7.50;99.90
14739;DHT22;7461;52.440;13.540;2023-04-08T08:59:51;7.60;99.90
14739;DHT22;7461;52.440;13.540;2023-04-08T09:02:29;7.60;99.90
14739;DHT22;7461;52.440;13.540;2023-04-08T09:04:58;7.60;99.90
14739;DHT22;7461;52.440;13.540;2023-04-08T09:07:27;7.60;99.90
14739;DHT22;7461;52.440;13.540;2023-04-08T09:09:56;7.70;99.90
14739;DHT22;7461;52.440;13.540;2023-04-08T09:12:24;7.70;99.90
14739;DHT22;7461;52.440;13.540;2023-04-08T09:15:03;7.80;99.90
14739;DHT22;7461;52.440;13.540;2023-04-08T09:17:31;7.90;99.90
14739;DHT22;7461;52.440;13.540;2023-04-08T09:20:06;8.00;99.90
14739;DHT22;7461;52.440;13.540;2023-04-08T09:22:54;8.00;99.90
14739;DHT22;7461;52.440;13.540;2023-04-08T09:25:23;8.00;99.90
14739;DHT22;7461;52.440;13.540;2023-04-08T09:27:50;8.10;99.90
14739;DHT22;7461;52.440;13.540;2023-04-08T09:30:19;8.10;99.90
14739;DHT22;7461;52.440;13.540;2023-04-08T09:32:47;8.20;99.90
14739;DHT22;7461;52.440;13.540;2023-04-08T09:35:16;8.20;99.90
14739;DHT22;7461;52.440;13.540;2023-04-08T09:37:44;8.30;99.90
14739;DHT22;7461;52.440;13.540;2023-04-08T09:40:12;8.30;99.90
14739;DHT22;7461;52.440;13.540;2023-04-08T09:42:45;8.40;99.90
14739;DHT22;7461;52.440;13.540;2023-04-08T09:45:15;8.40;99.90
14739;DHT22;7461;52.440;13.540;2023-04-08T09:47:53;8.50;99.90
14739;DHT22;7461;52.440;13.540;2023-04-08T09:50:25;8.50;99.90
14739;DHT22;7461;52.440;13.540;2023-04-08T09:52:59;8.60;99.90
14739;DHT22;7461;52.440;13.540;2023-04-08T09:55:29;8.60;99.90
14739;DHT22;7461;52.440;13.540;2023-04-08T09:58:00;8.60;99.90
14739;DHT22;7461;52.440;13.540;2023-04-08T10:00:31;8.70;99.90
14739;DHT22;7461;52.440;13.540;2023-04-08T10:03:05;8.70;99.90
14739;DHT22;7461;52.440;13.540;2023-04-08T10:05:36;8.70;99.90
14739;DHT22;7461;52.440;13.540;2023-04-08T10:08:06;8.70;99.90
14739;DHT22;7461;52.440;13.540;2023-04-08T10:10:33;8.70;99.90
14739;DHT22;7461;52.440;13.540;2023-04-08T10:13:02;8.70;99.90
14739;DHT22;7461;52.440;13.540;2023-04-08T10:15:30;8.80;99.90
14739;DHT22;7461;52.440;13.540;2023-04-08T10:18:30;8.80;99.90
14739;DHT22;7461;52.440;13.540;2023-04-08T10:20:58;8.90;99.90
14739;DHT22;7461;52.440;13.540;2023-04-08T10:23:54;8.90;99.90
14739;DHT22;7461;52.440;13.540;2023-04-08T10:26:31;9.00;99.90
14739;DHT22;7461;52.440;13.540;2023-04-08T10:32:05;9.20;99.90
14739;DHT22;7461;52.440;13.540;2023-04-08T10:34:32;9.30;99.90
14739;DHT22;7461;52.440;13.540;2023-04-08T10:36:59;9.30;99.90
14739;DHT22;7461;52.440;13.540;2023-04-08T10:39:30;9.30;99.90
14739;DHT22;7461;52.440;13.540;2023-04-08T10:41:57;9.30;99.90
14739;DHT22;7461;52.440;13.540;2023-04-08T10:44:27;9.30;99.90
14739;DHT22;7461;52.440;13.540;2023-04-08T10:46:57;9.40;99.90
14739;DHT22;7461;52.440;13.540;2023-04-08T10:49:31;9.60;99.90
14739;DHT22;7461;52.440;13.540;2023-04-08T10:51:59;9.70;99.90
14739;DHT22;7461;52.440;13.540;2023-04-08T10:54:28;9.70;99.90
14739;DHT22;7461;52.440;13.540;2023-04-08T10:56:55;9.70;99.90
14739;DHT22;7461;52.440;13.540;2023-04-08T10:59:29;9.70;99.90
14739;DHT22;7461;52.440;13.540;2023-04-08T11:01:57;9.60;99.90
14739;DHT22;7461;52.440;13.540;2023-04-08T11:04:25;9.70;99.90
14739;DHT22;7461;52.440;13.540;2023-04-08T11:06:52;9.70;99.90
14739;DHT22;7461;52.440;13.540;2023-04-08T11:09:19;9.80;99.90
14739;DHT22;7461;52.440;13.540;2023-04-08T11:11:48;9.80;99.90
14739;DHT22;7461;52.440;13.540;2023-04-08T11:14:15;9.80;99.90
14739;DHT22;7461;52.440;13.540;2023-04-08T11:16:46;9.90;99.90
14739;DHT22;7461;52.440;13.540;2023-04-08T11:19:13;10.10;99.90
14739;DHT22;7461;52.440;13.540;2023-04-08T11:21:41;10.30;99.90
14739;DHT22;7461;52.440;13.540;2023-04-08T11:24:11;10.40;99.90
14739;DHT22;7461;52.440;13.540;2023-04-08T11:26:38;10.60;99.90
14739;DHT22;7461;52.440;13.540;2023-04-08T11:29:09;10.60;99.90
14739;DHT22;7461;52.440;13.540;2023-04-08T11:31:39;10.70;99.90
14739;DHT22;7461;52.440;13.540;2023-04-08T11:34:07;10.80;99.90
14739;DHT22;7461;52.440;13.540;2023-04-08T11:36:34;10.80;99.90
14739;DHT22;7461;52.440;13.540;2023-04-08T11:39:06;10.90;99.90
14739;DHT22;7461;52.440;13.540;2023-04-08T11:41:36;10.80;99.90
14739;DHT22;7461;52.440;13.540;2023-04-08T11:44:06;10.90;99.90
14739;DHT22;7461;52.440;13.540;2023-04-08T11:46:34;10.80;99.90
14739;DHT22;7461;52.440;13.540;2023-04-08T11:49:03;10.70;99.90
14739;DHT22;7461;52.440;13.540;2023-04-08T11:51:31;10.70;99.90
14739;DHT22;7461;52.440;13.540;2023-04-08T11:53:59;10.70;99.90
14739;DHT22;7461;52.440;13.540;2023-04-08T11:56:26;10.60;99.90
14739;DHT22;7461;52.440;13.540;2023-04-08T11:58:55;10.60;99.90
14739;DHT22;7461;52.440;13.540;2023-04-08T12:01:23;10.50;99.90
14739;DHT22;7461;52.440;13.540;2023-04-08T12:03:57;10.50;99.90
14739;DHT22;7461;52.440;13.540;2023-04-08T12:06:25;10.40;99.90
14739;DHT22;7461;52.440;13.540;2023-04-08T12:08:54;10.60;99.90
14739;DHT22;7461;52.440;13.540;2023-04-08T12:11:22;10.80;99.90
14739;DHT22;7461;52.440;13.540;2023-04-08T12:13:49;11.00;99.90
14739;DHT22;7461;52.440;13.540;2023-04-08T12:16:17;11.20;99.90
14739;DHT22;7461;52.440;13.540;2023-04-08T12:18:45;11.20;99.90
14739;DHT22;7461;52.440;13.540;2023-04-08T12:21:12;11.30;99.90
14739;DHT22;7461;52.440;13.540;2023-04-08T12:23:40;11.30;99.90
14739;DHT22;7461;52.440;13.540;2023-04-08T12:26:07;11.40;99.90
14739;DHT22;7461;52.440;13.540;2023-04-08T12:28:34;11.50;99.90
14739;DHT22;7461;52.440;13.540;2023-04-08T12:31:01;11.40;99.90
14739;DHT22;7461;52.440;13.540;2023-04-08T12:33:28;11.30;99.90
14739;DHT22;7461;52.440;13.540;2023-04-08T12:35:57;11.20;99.90
14739;DHT22;7461;52.440;13.540;2023-04-08T12:38:24;11.20;99.90
14739;DHT22;7461;52.440;13.540;2023-04-08T12:40:52;11.10;99.90
14739;DHT22;7461;52.440;13.540;2023-04-08T12:43:19;11.00;99.90
14739;DHT22;7461;52.440;13.540;2023-04-08T12:45:46;11.10;99.90
14739;DHT22;7461;52.440;13.540;2023-04-08T12:48:14;11.20;99.90
14739;DHT22;7461;52.440;13.540;2023-04-08T12:50:41;11.40;99.90
14739;DHT22;7461;52.440;13.540;2023-04-08T12:53:09;11.40;99.90
14739;DHT22;7461;52.440;13.540;2023-04-08T12:55:36;11.70;99.90
14739;DHT22;7461;52.440;13.540;2023-04-08T12:58:03;11.80;99.90
14739;DHT22;7461;52.440;13.540;2023-04-08T13:00:31;11.70;99.90
14739;DHT22;7461;52.440;13.540;2023-04-08T13:02:58;11.80;99.90
14739;DHT22;7461;52.440;13.540;2023-04-08T13:05:25;11.90;99.90
14739;DHT22;7461;52.440;13.540;2023-04-08T13:07:52;12.00;99.90
14739;DHT22;7461;52.440;13.540;2023-04-08T13:10:20;11.80;99.90
14739;DHT22;7461;52.440;13.540;2023-04-08T13:12:47;11.80;99.90
14739;DHT22;7461;52.440;13.540;2023-04-08T13:15:15;11.80;99.90
14739;DHT22;7461;52.440;13.540;2023-04-08T13:17:41;11.80;99.90
14739;DHT22;7461;52.440;13.540;2023-04-08T13:20:09;12.00;99.90
14739;DHT22;7461;52.440;13.540;2023-04-08T13:22:37;12.10;99.90
14739;DHT22;7461;52.440;13.540;2023-04-08T13:25:06;12.30;99.90
14739;DHT22;7461;52.440;13.540;2023-04-08T13:27:34;12.50;99.90
14739;DHT22;7461;52.440;13.540;2023-04-08T13:30:01;12.60;99.90
14739;DHT22;7461;52.440;13.540;2023-04-08T13:32:29;12.70;99.90
14739;DHT22;7461;52.440;13.540;2023-04-08T13:34:56;12.70;99.90
14739;DHT22;7461;52.440;13.540;2023-04-08T13:37:23;12.80;99.90
14739;DHT22;7461;52.440;13.540;2023-04-08T13:39:50;12.90;99.90
14739;DHT22;7461;52.440;13.540;2023-04-08T13:42:17;12.90;99.90
14739;DHT22;7461;52.440;13.540;2023-04-08T13:44:46;13.00;99.90
14739;DHT22;7461;52.440;13.540;2023-04-08T13:47:13;12.80;99.90
14739;DHT22;7461;52.440;13.540;2023-04-08T13:49:40;12.70;99.90
14739;DHT22;7461;52.440;13.540;2023-04-08T13:52:07;12.70;99.90
14739;DHT22;7461;52.440;13.540;2023-04-08T13:54:34;12.70;99.90
14739;DHT22;7461;52.440;13.540;2023-04-08T13:57:01;12.50;99.90
14739;DHT22;7461;52.440;13.540;2023-04-08T13:59:28;12.40;99.90
14739;DHT22;7461;52.440;13.540;2023-04-08T14:01:57;12.20;99.90
14739;DHT22;7461;52.440;13.540;2023-04-08T14:04:24;12.20;99.90
14739;DHT22;7461;52.440;13.540;2023-04-08T14:06:51;12.10;99.90
14739;DHT22;7461;52.440;13.540;2023-04-08T14:09:18;12.10;99.90
14739;DHT22;7461;52.440;13.540;2023-04-08T14:11:45;12.00;99.90
14739;DHT22;7461;52.440;13.540;2023-04-08T14:14:12;12.00;99.90
14739;DHT22;7461;52.440;13.540;2023-04-08T14:16:39;12.00;99.90
14739;DHT22;7461;52.440;13.540;2023-04-08T14:19:07;12.10;99.90
14739;DHT22;7461;52.440;13.540;2023-04-08T14:21:35;12.10;99.90
14739;DHT22;7461;52.440;13.540;2023-04-08T14:24:02;12.00;99.90
14739;DHT22;7461;52.440;13.540;2023-04-08T14:26:29;12.00;99.90
14739;DHT22;7461;52.440;13.540;2023-04-08T14:29:01;11.90;99.90
14739;DHT22;7461;52.440;13.540;2023-04-08T14:31:27;11.90;99.90
14739;DHT22;7461;52.440;13.540;2023-04-08T14:33:54;11.90;99.90
14739;DHT22;7461;52.440;13.540;2023-04-08T14:36:23;12.00;99.90
14739;DHT22;7461;52.440;13.540;2023-04-08T14:38:50;12.10;99.90
14739;DHT22;7461;52.440;13.540;2023-04-08T14:41:17;12.20;99.90
14739;DHT22;7461;52.440;13.540;2023-04-08T14:43:44;12.30;99.90
14739;DHT22;7461;52.440;13.540;2023-04-08T14:46:11;12.40;99.90
14739;DHT22;7461;52.440;13.540;2023-04-08T14:48:38;12.40;99.90
14739;DHT22;7461;52.440;13.540;2023-04-08T14:51:05;12.30;99.90
14739;DHT22;7461;52.440;13.540;2023-04-08T14:53:34;12.20;99.90
14739;DHT22;7461;52.440;13.540;2023-04-08T14:56:01;12.30;99.90
14739;DHT22;7461;52.440;13.540;2023-04-08T14:58:28;12.40;99.90
14739;DHT22;7461;52.440;13.540;2023-04-08T15:00:55;12.50;99.90
14739;DHT22;7461;52.440;13.540;2023-04-08T15:03:22;12.50;99.90
14739;DHT22;7461;52.440;13.540;2023-04-08T15:05:49;12.60;99.90
14739;DHT22;7461;52.440;13.540;2023-04-08T15:08:16;12.60;99.90
14739;DHT22;7461;52.440;13.540;2023-04-08T15:10:44;12.70;99.90
14739;DHT22;7461;52.440;13.540;2023-04-08T15:13:11;12.50;99.90
14739;DHT22;7461;52.440;13.540;2023-04-08T15:15:38;12.40;99.90
14739;DHT22;7461;52.440;13.540;2023-04-08T15:18:05;12.40;99.90
14739;DHT22;7461;52.440;13.540;2023-04-08T15:20:32;12.20;99.90
14739;DHT22;7461;52.440;13.540;2023-04-08T15:22:59;12.10;99.90
14739;DHT22;7461;52.440;13.540;2023-04-08T15:25:26;12.10;99.90
14739;DHT22;7461;52.440;13.540;2023-04-08T15:27:54;12.10;99.90
14739;DHT22;7461;52.440;13.540;2023-04-08T15:30:21;12.10;99.90
14739;DHT22;7461;52.440;13.540;2023-04-08T15:32:50;12.20;99.90
14739;DHT22;7461;52.440;13.540;2023-04-08T15:35:17;12.20;99.90
14739;DHT22;7461;52.440;13.540;2023-04-08T15:37:44;12.20;99.90
14739;DHT22;7461;52.440;13.540;2023-04-08T15:40:11;12.20;99.90
14739;DHT22;7461;52.440;13.540;2023-04-08T15:42:38;12.20;99.90
14739;DHT22;7461;52.440;13.540;2023-04-08T15:45:07;12.10;99.90
14739;DHT22;7461;52.440;13.540;2023-04-08T15:47:36;12.00;99.90
14739;DHT22;7461;52.440;13.540;2023-04-08T15:50:04;12.00;99.90
14739;DHT22;7461;52.440;13.540;2023-04-08T15:52:31;12.00;99.90